Time;durP1;ratioP1;P1;durP2;ratioP2;P2;SDS_P1;SDS_P2;PMS_P1;PMS_P2;Temp;Humidity;BMP_temperature;BMP_pressure;BME280_temperature;BME280_humidity;BME280_pressure;Samples;Min_cycle;Max_cycle;Signal;HPM_P1;HPM_P2
2023/08/07 00:00:09;;;;;;;6.03;1.45;;;;;;;;;;4927027;28;98937;-71
2023/08/07 00:02:36;;;;;;;1.38;1.08;;;;;;;;;;4926945;28;100976;-72
2023/08/07 00:05:02;;;;;;;6.70;1.85;;;;;;;;;;4927414;28;100027;-72
2023/08/07 00:07:29;;;;;;;6.80;2.20;;;;;;;;;;4926307;28;100083;-72
2023/08/07 00:09:55;;;;;;;11.05;1.83;;;;;;;;;;4930758;28;99515;-71
2023/08/07 00:12:22;;;;;;;3.17;1.38;;;;;;;;;;4926994;28;98978;-71
2023/08/07 00:14:51;;;;;;;5.40;1.50;;;;;;;;;;4926136;28;99239;-72
2023/08/07 00:17:17;;;;;;;4.57;1.33;;;;;;;;;;4926835;28;98902;-72
2023/08/07 00:19:44;;;;;;;3.03;1.55;;;;;;;;;;4927699;28;99166;-71
2023/08/07 00:22:10;;;;;;;9.40;1.90;;;;;;;;;;4928936;28;99749;-72
2023/08/07 00:24:37;;;;;;;5.55;1.38;;;;;;;;;;4930870;28;99815;-72
2023/08/07 00:27:04;;;;;;;9.93;1.33;;;;;;;;;;4930413;28;99181;-71
2023/08/07 00:29:30;;;;;;;3.53;1.73;;;;;;;;;;4928516;28;101857;-71
2023/08/07 00:31:56;;;;;;;5.57;1.33;;;;;;;;;;4932401;28;99671;-70
2023/08/07 00:34:23;;;;;;;5.40;1.00;;;;;;;;;;4930176;28;99508;-71
2023/08/07 00:36:49;;;;;;;7.13;2.10;;;;;;;;;;4914920;28;99359;-71
2023/08/07 00:39:16;;;;;;;6.95;1.65;;;;;;;;;;4911529;28;99497;-71
2023/08/07 00:41:42;;;;;;;3.83;1.48;;;;;;;;;;4911361;28;99690;-71
2023/08/07 00:44:09;;;;;;;14.57;2.55;;;;;;;;;;4912037;28;98800;-70
2023/08/07 00:46:35;;;;;;;8.68;2.08;;;;;;;;;;4929954;28;99103;-71
2023/08/07 00:49:02;;;;;;;10.10;1.85;;;;;;;;;;4930107;28;99092;-71
2023/08/07 00:51:29;;;;;;;8.05;2.05;;;;;;;;;;4928026;28;101534;-72
2023/08/07 00:53:56;;;;;;;5.70;1.80;;;;;;;;;;4931919;28;101832;-71
2023/08/07 00:56:23;;;;;;;11.27;1.73;;;;;;;;;;4924678;28;100649;-72
2023/08/07 00:58:50;;;;;;;4.57;2.53;;;;;;;;;;4911218;28;100035;-73
2023/08/07 01:01:16;;;;;;;6.57;1.80;;;;;;;;;;4910959;28;99345;-72
2023/08/07 01:03:43;;;;;;;8.80;2.22;;;;;;;;;;4929382;28;100133;-72
2023/08/07 01:06:10;;;;;;;9.38;2.00;;;;;;;;;;4930158;28;98956;-72
2023/08/07 01:08:36;;;;;;;5.50;2.05;;;;;;;;;;4930815;28;100710;-72
2023/08/07 01:11:22;;;;;;;19.80;2.45;;;;;;;;;;4927868;28;100858;-72
2023/08/07 01:13:48;;;;;;;9.32;2.72;;;;;;;;;;4932676;28;98727;-72
2023/08/07 01:16:21;;;;;;;15.35;3.53;;;;;;;;;;4927880;28;100200;-72
2023/08/07 01:18:48;;;;;;;9.18;2.33;;;;;;;;;;4927446;28;99988;-72
2023/08/07 01:21:17;;;;;;;7.90;2.30;;;;;;;;;;4929424;28;100206;-71
2023/08/07 01:23:43;;;;;;;10.80;2.63;;;;;;;;;;4928928;28;100407;-73
2023/08/07 01:26:10;;;;;;;5.93;2.65;;;;;;;;;;4927997;28;101711;-72
2023/08/07 01:28:38;;;;;;;8.82;2.13;;;;;;;;;;4930263;28;99212;-71
2023/08/07 01:31:08;;;;;;;12.70;2.90;;;;;;;;;;4922321;28;99456;-72
2023/08/07 01:33:39;;;;;;;9.25;2.10;;;;;;;;;;4907538;28;100448;-72
2023/08/07 01:36:07;;;;;;;10.02;3.10;;;;;;;;;;4934277;28;100578;-72
2023/08/07 01:38:34;;;;;;;10.32;2.33;;;;;;;;;;4907919;28;100066;-73
2023/08/07 01:41:01;;;;;;;10.85;2.42;;;;;;;;;;4940734;28;100927;-73
2023/08/07 01:43:28;;;;;;;8.73;2.25;;;;;;;;;;4910161;28;98729;-72
2023/08/07 01:45:54;;;;;;;16.98;3.00;;;;;;;;;;4909647;28;98775;-73
2023/08/07 01:48:23;;;;;;;15.98;3.50;;;;;;;;;;4909902;28;99052;-73
2023/08/07 01:50:52;;;;;;;9.52;2.95;;;;;;;;;;4909850;28;99335;-72
2023/08/07 01:53:19;;;;;;;13.88;2.15;;;;;;;;;;4917934;28;100074;-72
2023/08/07 01:55:45;;;;;;;10.05;1.60;;;;;;;;;;4928279;28;100359;-73
2023/08/07 01:58:12;;;;;;;21.27;3.20;;;;;;;;;;4931588;28;100901;-73
2023/08/07 02:00:38;;;;;;;5.72;2.42;;;;;;;;;;4927433;28;100619;-72
2023/08/07 02:03:08;;;;;;;4.05;1.77;;;;;;;;;;4927723;28;99071;-72
2023/08/07 02:05:35;;;;;;;12.45;2.53;;;;;;;;;;4928590;28;99291;-72
2023/08/07 02:08:01;;;;;;;10.35;2.30;;;;;;;;;;4928441;28;99332;-72
2023/08/07 02:10:28;;;;;;;18.75;3.30;;;;;;;;;;4928844;28;99198;-72
2023/08/07 02:12:57;;;;;;;8.00;2.10;;;;;;;;;;4929315;28;98938;-72
2023/08/07 02:15:23;;;;;;;8.02;2.42;;;;;;;;;;4927903;28;99095;-72
2023/08/07 02:17:50;;;;;;;5.20;2.40;;;;;;;;;;4927882;28;99280;-72
2023/08/07 02:20:16;;;;;;;10.77;2.15;;;;;;;;;;4931885;28;98909;-72
2023/08/07 02:22:43;;;;;;;8.30;2.35;;;;;;;;;;4927763;28;101034;-73
2023/08/07 02:25:10;;;;;;;9.23;2.55;;;;;;;;;;4929349;28;98377;-72
2023/08/07 02:27:37;;;;;;;13.32;2.45;;;;;;;;;;4928331;28;99086;-73
2023/08/07 02:30:05;;;;;;;10.88;4.07;;;;;;;;;;4928160;28;99516;-73
2023/08/07 02:32:31;;;;;;;8.68;2.08;;;;;;;;;;4928436;28;100487;-73
2023/08/07 02:34:58;;;;;;;4.50;2.33;;;;;;;;;;4927915;28;99260;-72
2023/08/07 02:37:25;;;;;;;13.73;3.25;;;;;;;;;;4928618;28;98896;-73
2023/08/07 02:39:53;;;;;;;9.07;2.42;;;;;;;;;;4928951;28;99122;-72
2023/08/07 02:42:19;;;;;;;7.82;2.47;;;;;;;;;;4929485;28;101808;-72
2023/08/07 02:44:46;;;;;;;7.53;2.30;;;;;;;;;;4928291;28;99330;-73
2023/08/07 02:47:12;;;;;;;15.05;2.92;;;;;;;;;;4927473;28;99671;-73
2023/08/07 02:49:39;;;;;;;12.85;2.97;;;;;;;;;;4927671;28;98834;-73
2023/08/07 02:52:05;;;;;;;4.53;1.98;;;;;;;;;;4928939;28;99870;-72
2023/08/07 02:54:32;;;;;;;17.85;3.78;;;;;;;;;;4926505;28;102287;-71
2023/08/07 02:56:59;;;;;;;8.93;2.22;;;;;;;;;;4926426;28;98699;-73
2023/08/07 02:59:25;;;;;;;10.15;2.70;;;;;;;;;;4927886;28;99006;-72
2023/08/07 03:01:52;;;;;;;9.48;1.92;;;;;;;;;;4928323;28;100145;-72
2023/08/07 03:04:18;;;;;;;12.07;2.10;;;;;;;;;;4929278;28;102368;-73
2023/08/07 03:06:44;;;;;;;12.13;2.40;;;;;;;;;;4928444;28;99274;-72
2023/08/07 03:09:11;;;;;;;11.15;3.20;;;;;;;;;;4926909;28;99889;-72
2023/08/07 03:11:37;;;;;;;8.65;2.70;;;;;;;;;;4926579;28;99341;-72
2023/08/07 03:14:04;;;;;;;11.52;1.95;;;;;;;;;;4926784;28;100352;-73
2023/08/07 03:16:30;;;;;;;8.95;2.30;;;;;;;;;;4926512;28;99292;-73
2023/08/07 03:18:57;;;;;;;3.85;1.80;;;;;;;;;;4926917;28;99679;-73
2023/08/07 03:21:23;;;;;;;6.70;1.52;;;;;;;;;;4928153;28;99160;-73
2023/08/07 03:23:50;;;;;;;4.03;1.63;;;;;;;;;;4930431;28;100369;-73
2023/08/07 03:26:17;;;;;;;3.65;1.83;;;;;;;;;;4927985;28;99603;-73
2023/08/07 03:28:48;;;;;;;9.98;1.83;;;;;;;;;;4927125;28;99124;-72
2023/08/07 03:31:15;;;;;;;4.25;1.67;;;;;;;;;;4926908;28;98873;-73
2023/08/07 03:33:42;;;;;;;4.72;1.70;;;;;;;;;;4926613;28;101800;-73
2023/08/07 03:36:09;;;;;;;3.00;2.13;;;;;;;;;;4926329;28;100980;-72
2023/08/07 03:38:35;;;;;;;5.22;2.15;;;;;;;;;;4926344;28;100198;-72
2023/08/07 03:41:02;;;;;;;4.18;1.70;;;;;;;;;;4928478;28;101082;-74
2023/08/07 03:43:30;;;;;;;10.35;2.22;;;;;;;;;;4927574;28;101282;-73
2023/08/07 03:45:56;;;;;;;8.43;1.73;;;;;;;;;;4928769;28;102180;-72
2023/08/07 03:48:26;;;;;;;10.77;1.92;;;;;;;;;;4925949;28;100939;-72
2023/08/07 03:50:53;;;;;;;12.38;1.85;;;;;;;;;;4926347;28;101545;-73
2023/08/07 03:53:20;;;;;;;3.30;2.67;;;;;;;;;;4925005;28;100195;-73
2023/08/07 03:55:51;;;;;;;4.10;1.58;;;;;;;;;;4926668;28;101424;-73
2023/08/07 03:58:21;;;;;;;7.70;1.52;;;;;;;;;;4929795;28;100028;-72
2023/08/07 04:00:47;;;;;;;3.65;1.40;;;;;;;;;;4929891;28;98754;-72
2023/08/07 04:03:14;;;;;;;8.65;2.22;;;;;;;;;;4929261;28;100824;-73
2023/08/07 04:05:41;;;;;;;3.78;2.00;;;;;;;;;;4931195;28;99433;-72
2023/08/07 04:08:07;;;;;;;3.55;1.48;;;;;;;;;;4932785;28;100007;-72
2023/08/07 04:10:38;;;;;;;4.93;1.33;;;;;;;;;;4911955;28;99792;-73
2023/08/07 04:13:04;;;;;;;8.48;2.00;;;;;;;;;;4910935;28;99310;-72
2023/08/07 04:15:31;;;;;;;10.40;2.85;;;;;;;;;;4911495;28;99099;-72
2023/08/07 04:17:57;;;;;;;7.13;1.90;;;;;;;;;;4911563;28;98705;-72
2023/08/07 04:20:24;;;;;;;3.30;1.95;;;;;;;;;;4909060;28;99607;-74
2023/08/07 04:22:52;;;;;;;8.20;2.40;;;;;;;;;;4935569;28;100928;-74
2023/08/07 04:25:19;;;;;;;9.48;2.20;;;;;;;;;;4929538;28;100645;-73
2023/08/07 04:27:45;;;;;;;12.13;2.42;;;;;;;;;;4930375;28;99605;-73
2023/08/07 04:30:12;;;;;;;3.55;1.80;;;;;;;;;;4932623;28;101664;-73
2023/08/07 04:32:38;;;;;;;11.93;2.80;;;;;;;;;;4931125;28;100910;-73
2023/08/07 04:35:05;;;;;;;12.23;2.38;;;;;;;;;;4929763;28;99620;-73
2023/08/07 04:37:32;;;;;;;9.10;2.55;;;;;;;;;;4930148;28;99258;-73
2023/08/07 04:40:00;;;;;;;6.55;2.15;;;;;;;;;;4930149;28;100228;-72
2023/08/07 04:42:27;;;;;;;11.02;2.10;;;;;;;;;;4928999;28;98935;-72
2023/08/07 04:44:53;;;;;;;5.55;2.03;;;;;;;;;;4930506;28;100175;-72
2023/08/07 04:47:20;;;;;;;16.65;3.20;;;;;;;;;;4929714;28;99772;-72
2023/08/07 04:49:46;;;;;;;7.55;1.90;;;;;;;;;;4929375;28;99961;-72
2023/08/07 04:52:13;;;;;;;11.15;2.55;;;;;;;;;;4931891;28;100229;-72
2023/08/07 04:54:51;;;;;;;10.27;2.85;;;;;;;;;;4930514;28;99928;-74
2023/08/07 04:57:18;;;;;;;6.88;3.05;;;;;;;;;;4928943;28;100108;-73
2023/08/07 04:59:44;;;;;;;10.05;2.85;;;;;;;;;;4930145;28;100112;-74
2023/08/07 05:02:11;;;;;;;24.98;3.35;;;;;;;;;;4914629;28;100532;-73
2023/08/07 05:04:37;;;;;;;11.13;2.63;;;;;;;;;;4910502;28;99330;-72
2023/08/07 05:07:04;;;;;;;7.88;2.50;;;;;;;;;;4910533;28;99539;-71
2023/08/07 05:09:30;;;;;;;11.20;2.50;;;;;;;;;;4909597;28;99112;-72
2023/08/07 05:11:57;;;;;;;7.53;2.58;;;;;;;;;;4910529;28;99933;-72
2023/08/07 05:14:24;;;;;;;5.90;1.92;;;;;;;;;;4914081;28;99857;-72
2023/08/07 05:16:50;;;;;;;7.20;2.58;;;;;;;;;;4916191;28;99119;-72
2023/08/07 05:19:16;;;;;;;9.68;2.97;;;;;;;;;;4929294;28;101364;-72
2023/08/07 05:21:43;;;;;;;5.97;2.35;;;;;;;;;;4928713;28;99272;-72
2023/08/07 05:24:09;;;;;;;9.52;2.33;;;;;;;;;;4929307;28;100642;-73
2023/08/07 05:26:36;;;;;;;2.30;1.35;;;;;;;;;;4930060;28;100082;-72
2023/08/07 05:29:03;;;;;;;9.60;2.47;;;;;;;;;;4929923;28;99398;-72
2023/08/07 05:31:30;;;;;;;8.45;3.25;;;;;;;;;;4928501;28;99580;-72
2023/08/07 05:33:57;;;;;;;6.80;2.33;;;;;;;;;;4926047;28;100077;-72
2023/08/07 05:36:23;;;;;;;6.13;1.90;;;;;;;;;;4921207;28;99835;-71
2023/08/07 05:38:49;;;;;;;5.07;1.90;;;;;;;;;;4921007;28;98523;-72
2023/08/07 05:41:16;;;;;;;7.22;2.10;;;;;;;;;;4920897;28;100314;-72
2023/08/07 05:43:43;;;;;;;5.72;2.22;;;;;;;;;;4926388;28;101617;-71
2023/08/07 05:46:09;;;;;;;7.30;2.78;;;;;;;;;;4925455;28;100064;-74
2023/08/07 05:48:35;;;;;;;3.03;1.98;;;;;;;;;;4924894;28;100382;-72
2023/08/07 05:51:02;;;;;;;9.57;2.60;;;;;;;;;;4921396;28;99009;-72
2023/08/07 05:53:28;;;;;;;8.80;2.10;;;;;;;;;;4918975;28;99398;-71
2023/08/07 05:55:55;;;;;;;6.43;2.72;;;;;;;;;;4929877;28;100170;-73
2023/08/07 05:58:22;;;;;;;5.35;2.10;;;;;;;;;;4929096;28;100275;-72
2023/08/07 06:00:49;;;;;;;12.70;3.90;;;;;;;;;;4925357;28;99136;-73
2023/08/07 06:03:15;;;;;;;7.25;2.13;;;;;;;;;;4928943;28;99110;-73
2023/08/07 06:05:41;;;;;;;9.63;3.03;;;;;;;;;;4927051;28;100294;-73
2023/08/07 06:08:08;;;;;;;6.60;2.45;;;;;;;;;;4929125;28;98989;-72
2023/08/07 06:10:35;;;;;;;14.85;2.78;;;;;;;;;;4926933;28;99918;-72
2023/08/07 06:13:01;;;;;;;11.85;2.78;;;;;;;;;;4926370;28;100511;-72
2023/08/07 06:15:29;;;;;;;7.03;2.50;;;;;;;;;;4927718;28;98998;-72
2023/08/07 06:17:55;;;;;;;12.15;2.83;;;;;;;;;;4916026;28;99477;-72
2023/08/07 06:20:22;;;;;;;7.20;2.35;;;;;;;;;;4908967;28;99304;-73
2023/08/07 06:22:48;;;;;;;13.88;2.50;;;;;;;;;;4928784;28;99009;-73
2023/08/07 06:25:15;;;;;;;7.55;2.65;;;;;;;;;;4927162;28;100081;-74
2023/08/07 06:27:41;;;;;;;11.93;2.50;;;;;;;;;;4926750;28;100132;-73
2023/08/07 06:30:08;;;;;;;12.90;3.05;;;;;;;;;;4921772;28;99430;-73
2023/08/07 06:32:34;;;;;;;10.35;3.17;;;;;;;;;;4914530;28;99491;-74
2023/08/07 06:35:01;;;;;;;11.63;2.53;;;;;;;;;;4933145;28;100692;-74
2023/08/07 06:37:28;;;;;;;5.13;2.30;;;;;;;;;;4928011;28;99727;-74
2023/08/07 06:39:54;;;;;;;13.60;3.78;;;;;;;;;;4931875;28;100187;-73
2023/08/07 06:42:21;;;;;;;12.88;3.53;;;;;;;;;;4927812;28;99889;-74
2023/08/07 06:44:47;;;;;;;8.32;2.70;;;;;;;;;;4928092;28;99741;-72
2023/08/07 06:47:14;;;;;;;4.80;2.00;;;;;;;;;;4928174;28;99953;-73
2023/08/07 06:49:40;;;;;;;7.50;2.58;;;;;;;;;;4927176;28;99878;-75
2023/08/07 06:52:07;;;;;;;9.57;2.40;;;;;;;;;;4928772;28;99512;-75
2023/08/07 06:54:33;;;;;;;5.97;2.08;;;;;;;;;;4928322;28;99044;-74
2023/08/07 06:57:00;;;;;;;11.23;2.58;;;;;;;;;;4927978;28;98979;-75
2023/08/07 06:59:26;;;;;;;11.35;3.03;;;;;;;;;;4927984;28;100920;-74
2023/08/07 07:01:52;;;;;;;8.57;2.63;;;;;;;;;;4913724;28;99910;-74
2023/08/07 07:04:19;;;;;;;11.43;2.90;;;;;;;;;;4908712;28;100092;-73
2023/08/07 07:06:45;;;;;;;10.77;3.45;;;;;;;;;;4908842;28;99987;-73
2023/08/07 07:09:15;;;;;;;8.40;2.38;;;;;;;;;;4907998;28;100206;-74
2023/08/07 07:11:43;;;;;;;8.45;2.72;;;;;;;;;;4908958;28;99130;-74
2023/08/07 07:14:10;;;;;;;9.30;2.85;;;;;;;;;;4908462;28;100097;-74
2023/08/07 07:16:37;;;;;;;8.13;2.30;;;;;;;;;;4908514;28;100087;-73
2023/08/07 07:19:06;;;;;;;11.93;2.58;;;;;;;;;;4908394;28;99698;-73
2023/08/07 07:21:32;;;;;;;4.93;2.17;;;;;;;;;;4910103;28;99902;-74
2023/08/07 07:23:59;;;;;;;7.50;2.40;;;;;;;;;;4930306;28;100029;-73
2023/08/07 07:26:25;;;;;;;28.05;3.05;;;;;;;;;;4927886;28;100009;-74
2023/08/07 07:28:52;;;;;;;6.80;2.30;;;;;;;;;;4927943;28;100119;-73
2023/08/07 07:31:18;;;;;;;14.75;2.70;;;;;;;;;;4925963;28;100147;-73
2023/08/07 07:33:46;;;;;;;22.42;3.03;;;;;;;;;;4927585;28;98955;-73
2023/08/07 07:36:16;;;;;;;12.35;2.53;;;;;;;;;;4926918;28;100023;-73
2023/08/07 07:38:43;;;;;;;11.65;2.70;;;;;;;;;;4926926;28;100139;-74
2023/08/07 07:41:11;;;;;;;9.57;2.88;;;;;;;;;;4927994;28;99957;-75
2023/08/07 07:43:38;;;;;;;9.38;2.38;;;;;;;;;;4931689;28;99449;-73
2023/08/07 07:46:04;;;;;;;7.63;2.30;;;;;;;;;;4927468;28;99101;-73
2023/08/07 07:48:31;;;;;;;5.25;2.25;;;;;;;;;;4927292;28;99438;-74
2023/08/07 07:50:58;;;;;;;7.15;2.33;;;;;;;;;;4926527;28;100509;-73
2023/08/07 07:53:24;;;;;;;7.68;2.65;;;;;;;;;;4925851;28;99593;-73
2023/08/07 07:55:51;;;;;;;6.85;2.35;;;;;;;;;;4927384;28;99124;-73
2023/08/07 07:58:17;;;;;;;7.55;1.92;;;;;;;;;;4926877;28;100140;-73
2023/08/07 08:00:44;;;;;;;8.23;2.80;;;;;;;;;;4927219;28;98940;-73
2023/08/07 08:03:12;;;;;;;9.38;3.53;;;;;;;;;;4927340;28;99032;-73
2023/08/07 08:05:39;;;;;;;5.10;2.17;;;;;;;;;;4930481;28;99541;-73
2023/08/07 08:08:07;;;;;;;14.88;2.85;;;;;;;;;;4927526;28;98651;-76
2023/08/07 08:10:34;;;;;;;8.98;2.92;;;;;;;;;;4924395;28;99961;-73
2023/08/07 08:13:01;;;;;;;14.82;2.85;;;;;;;;;;4908424;28;99513;-74
2023/08/07 08:15:27;;;;;;;15.45;3.08;;;;;;;;;;4907664;28;100970;-75
2023/08/07 08:17:54;;;;;;;13.38;2.28;;;;;;;;;;4921251;28;101374;-76
2023/08/07 08:20:20;;;;;;;7.93;2.67;;;;;;;;;;4926082;28;100078;-75
2023/08/07 08:22:47;;;;;;;6.45;1.92;;;;;;;;;;4925499;28;100720;-76
2023/08/07 08:25:13;;;;;;;12.20;3.28;;;;;;;;;;4907773;28;99008;-75
2023/08/07 08:27:40;;;;;;;7.03;2.20;;;;;;;;;;4910915;28;99857;-74
2023/08/07 08:30:06;;;;;;;14.32;2.70;;;;;;;;;;4908817;28;99334;-74
2023/08/07 08:32:33;;;;;;;6.03;1.92;;;;;;;;;;4923423;28;99831;-73
2023/08/07 08:34:59;;;;;;;6.65;1.92;;;;;;;;;;4926193;28;100239;-75
2023/08/07 08:37:26;;;;;;;6.22;3.10;;;;;;;;;;4926075;28;101154;-73
2023/08/07 08:39:52;;;;;;;6.40;1.95;;;;;;;;;;4926928;28;99166;-73
2023/08/07 08:42:19;;;;;;;7.85;2.17;;;;;;;;;;4927174;28;98850;-75
2023/08/07 08:44:52;;;;;;;6.35;2.35;;;;;;;;;;4930347;28;100191;-73
2023/08/07 08:47:20;;;;;;;7.90;2.22;;;;;;;;;;4928923;28;99155;-74
2023/08/07 08:49:49;;;;;;;11.07;2.42;;;;;;;;;;4933012;28;100154;-74
2023/08/07 08:52:15;;;;;;;7.53;2.72;;;;;;;;;;4929579;28;100094;-74
2023/08/07 08:54:45;;;;;;;6.00;1.85;;;;;;;;;;4930191;28;99901;-74
2023/08/07 08:57:12;;;;;;;6.50;1.95;;;;;;;;;;4930212;28;98824;-74
2023/08/07 08:59:40;;;;;;;10.68;2.50;;;;;;;;;;4929670;28;98974;-74
2023/08/07 09:02:07;;;;;;;9.48;2.40;;;;;;;;;;4928606;28;99991;-74
2023/08/07 09:04:34;;;;;;;10.10;2.45;;;;;;;;;;4929269;28;100181;-74
2023/08/07 09:07:01;;;;;;;8.30;1.85;;;;;;;;;;4929428;28;99948;-74
2023/08/07 09:09:27;;;;;;;6.38;1.73;;;;;;;;;;4929063;28;98938;-74
2023/08/07 09:11:54;;;;;;;5.53;2.15;;;;;;;;;;4933257;28;100260;-73
2023/08/07 09:14:23;;;;;;;5.97;2.00;;;;;;;;;;4929720;28;98952;-75
2023/08/07 09:16:50;;;;;;;9.13;2.35;;;;;;;;;;4928626;28;99324;-73
2023/08/07 09:19:17;;;;;;;5.57;2.63;;;;;;;;;;4929933;28;100519;-74
2023/08/07 09:21:44;;;;;;;4.35;1.58;;;;;;;;;;4929852;28;99733;-74
2023/08/07 09:24:11;;;;;;;5.90;2.13;;;;;;;;;;4929074;28;99755;-73
2023/08/07 09:26:41;;;;;;;6.30;2.05;;;;;;;;;;4929761;28;100113;-73
2023/08/07 09:29:09;;;;;;;11.60;2.65;;;;;;;;;;4929884;28;99900;-74
2023/08/07 09:31:36;;;;;;;6.15;2.05;;;;;;;;;;4928890;28;99363;-74
2023/08/07 09:34:03;;;;;;;8.90;2.72;;;;;;;;;;4932431;28;98614;-74
2023/08/07 09:36:33;;;;;;;5.97;1.63;;;;;;;;;;4930994;28;99423;-74
2023/08/07 09:39:00;;;;;;;5.95;1.75;;;;;;;;;;4929813;28;101213;-74
2023/08/07 09:41:28;;;;;;;5.60;2.47;;;;;;;;;;4929569;28;99173;-74
2023/08/07 09:43:55;;;;;;;9.95;2.08;;;;;;;;;;4929138;28;98894;-73
2023/08/07 09:46:22;;;;;;;8.88;2.95;;;;;;;;;;4928894;28;99712;-74
2023/08/07 09:48:48;;;;;;;6.05;2.15;;;;;;;;;;4929473;28;100189;-73
2023/08/07 09:51:15;;;;;;;6.93;2.55;;;;;;;;;;4927218;28;100904;-73
2023/08/07 09:53:41;;;;;;;6.93;2.03;;;;;;;;;;4930559;28;99525;-73
2023/08/07 09:56:08;;;;;;;7.60;2.65;;;;;;;;;;4929278;28;99434;-74
2023/08/07 09:58:35;;;;;;;8.98;2.08;;;;;;;;;;4928304;28;100721;-74
2023/08/07 10:01:04;;;;;;;9.07;2.75;;;;;;;;;;4929439;28;99013;-74
2023/08/07 10:03:31;;;;;;;10.52;2.55;;;;;;;;;;4929068;28;100331;-73
2023/08/07 10:05:58;;;;;;;5.90;2.22;;;;;;;;;;4927856;28;100353;-73
2023/08/07 10:08:25;;;;;;;10.60;2.38;;;;;;;;;;4929399;28;98991;-74
2023/08/07 10:10:51;;;;;;;5.97;1.92;;;;;;;;;;4929261;28;99212;-74
2023/08/07 10:13:18;;;;;;;12.68;2.50;;;;;;;;;;4927813;28;99875;-76
2023/08/07 10:15:53;;;;;;;2.67;1.52;;;;;;;;;;4931828;28;99295;-74
2023/08/07 10:18:21;;;;;;;8.88;2.40;;;;;;;;;;4928508;28;100052;-73
2023/08/07 10:20:48;;;;;;;5.38;1.45;;;;;;;;;;4911483;28;99098;-73
2023/08/07 10:23:16;;;;;;;4.47;1.85;;;;;;;;;;4928468;28;99327;-73
2023/08/07 10:25:45;;;;;;;5.03;1.70;;;;;;;;;;4919418;28;100167;-73
2023/08/07 10:28:13;;;;;;;8.93;2.40;;;;;;;;;;4922665;28;99236;-73
2023/08/07 10:30:41;;;;;;;3.55;1.73;;;;;;;;;;4928596;28;99293;-73
2023/08/07 10:33:09;;;;;;;8.45;1.98;;;;;;;;;;4928706;28;100119;-73
2023/08/07 10:35:35;;;;;;;5.93;1.73;;;;;;;;;;4928600;28;98510;-73
2023/08/07 10:38:08;;;;;;;6.88;1.83;;;;;;;;;;4931725;28;100086;-73
2023/08/07 10:40:53;;;;;;;5.22;2.05;;;;;;;;;;4911094;28;99683;-73
2023/08/07 10:43:23;;;;;;;6.50;2.03;;;;;;;;;;4909086;28;100208;-73
2023/08/07 10:45:49;;;;;;;5.65;1.92;;;;;;;;;;4909174;28;99145;-74
2023/08/07 10:48:21;;;;;;;6.75;2.00;;;;;;;;;;4908523;28;99419;-73
2023/08/07 10:50:54;;;;;;;5.63;2.00;;;;;;;;;;4912662;28;100405;-74
2023/08/07 10:53:27;;;;;;;12.23;2.38;;;;;;;;;;4928292;28;99038;-75
2023/08/07 10:55:57;;;;;;;5.15;1.63;;;;;;;;;;4928066;28;99944;-73
2023/08/07 10:58:29;;;;;;;4.38;1.83;;;;;;;;;;4928825;28;99440;-74
2023/08/07 11:00:56;;;;;;;;;;;;;;;;;;4931860;28;99628;-73
2023/08/07 11:03:26;;;;;;;7.60;2.03;;;;;;;;;;4927615;28;118869;-74
2023/08/07 11:05:52;;;;;;;10.90;2.53;;;;;;;;;;4927901;28;99898;-74
2023/08/07 11:08:23;;;;;;;6.63;2.38;;;;;;;;;;4927225;28;100635;-74
2023/08/07 11:10:50;;;;;;;10.02;1.85;;;;;;;;;;4927716;28;99256;-74
2023/08/07 11:13:17;;;;;;;10.60;2.10;;;;;;;;;;4927805;28;99970;-74
2023/08/07 11:15:45;;;;;;;3.80;1.80;;;;;;;;;;4926812;28;99086;-75
2023/08/07 11:18:12;;;;;;;4.75;1.77;;;;;;;;;;4927798;28;100522;-72
2023/08/07 11:20:38;;;;;;;4.88;1.58;;;;;;;;;;4927431;28;99549;-72
2023/08/07 11:23:06;;;;;;;7.03;2.17;;;;;;;;;;4924740;28;99283;-73
2023/08/07 11:25:32;;;;;;;3.75;1.80;;;;;;;;;;4927428;28;99094;-72
2023/08/07 11:27:58;;;;;;;6.57;2.28;;;;;;;;;;4928277;28;99892;-75
2023/08/07 11:30:25;;;;;;;2.70;1.30;;;;;;;;;;4926466;28;100993;-73
2023/08/07 11:32:51;;;;;;;11.27;1.88;;;;;;;;;;4928261;28;100017;-74
2023/08/07 11:35:19;;;;;;;7.38;2.15;;;;;;;;;;4928058;28;98965;-74
2023/08/07 11:37:47;;;;;;;2.85;1.40;;;;;;;;;;4926805;28;99768;-75
2023/08/07 11:40:14;;;;;;;7.45;1.88;;;;;;;;;;4927416;28;100384;-74
2023/08/07 11:42:41;;;;;;;4.45;1.65;;;;;;;;;;4931376;28;99159;-74
2023/08/07 11:45:08;;;;;;;6.72;2.58;;;;;;;;;;4926812;28;99957;-74
2023/08/07 11:47:34;;;;;;;14.98;2.10;;;;;;;;;;4928243;28;99003;-75
2023/08/07 11:50:01;;;;;;;11.75;2.67;;;;;;;;;;4927181;28;99759;-73
2023/08/07 11:52:28;;;;;;;6.72;2.33;;;;;;;;;;4924742;28;100090;-74
2023/08/07 11:54:54;;;;;;;6.53;1.95;;;;;;;;;;4926232;28;99250;-73
2023/08/07 11:57:21;;;;;;;10.57;2.42;;;;;;;;;;4926973;28;99937;-73
2023/08/07 11:59:49;;;;;;;3.97;1.70;;;;;;;;;;4927647;28;100173;-74
2023/08/07 12:02:16;;;;;;;7.15;1.70;;;;;;;;;;4927502;28;98944;-73
2023/08/07 12:04:43;;;;;;;8.82;1.63;;;;;;;;;;4930262;28;100511;-73
2023/08/07 12:07:10;;;;;;;2.78;1.55;;;;;;;;;;4927600;28;98995;-73
2023/08/07 12:09:38;;;;;;;6.90;1.95;;;;;;;;;;4927009;28;99617;-74
2023/08/07 12:12:05;;;;;;;5.15;1.52;;;;;;;;;;4927073;28;100135;-74
2023/08/07 12:14:32;;;;;;;6.03;1.42;;;;;;;;;;4926864;28;98453;-73
2023/08/07 12:17:00;;;;;;;7.15;1.38;;;;;;;;;;4928012;28;100046;-73
2023/08/07 12:19:35;;;;;;;6.38;1.77;;;;;;;;;;4929082;28;100217;-75
2023/08/07 12:22:04;;;;;;;3.50;1.50;;;;;;;;;;4930807;28;100442;-75
2023/08/07 12:24:30;;;;;;;5.00;1.50;;;;;;;;;;4930121;28;99632;-75
2023/08/07 12:26:56;;;;;;;5.43;1.60;;;;;;;;;;4933303;28;100197;-73
2023/08/07 12:29:28;;;;;;;5.53;1.55;;;;;;;;;;4930595;28;100148;-73
2023/08/07 12:31:55;;;;;;;1.88;0.95;;;;;;;;;;4930977;28;99020;-73
2023/08/07 12:34:21;;;;;;;3.28;1.35;;;;;;;;;;4929787;28;99516;-73
2023/08/07 12:36:51;;;;;;;1.25;0.90;;;;;;;;;;4928989;28;99872;-73
2023/08/07 12:39:17;;;;;;;4.13;2.00;;;;;;;;;;4929692;28;98977;-76
2023/08/07 12:41:44;;;;;;;8.15;1.60;;;;;;;;;;4929354;28;99879;-74
2023/08/07 12:44:30;;;;;;;4.75;1.35;;;;;;;;;;4929099;28;101039;-74
2023/08/07 12:46:57;;;;;;;6.18;1.70;;;;;;;;;;4929693;28;99081;-73
2023/08/07 12:49:23;;;;;;;4.60;1.45;;;;;;;;;;4933280;28;99802;-74
2023/08/07 12:51:50;;;;;;;1.65;1.10;;;;;;;;;;4929846;28;100125;-73
2023/08/07 12:54:16;;;;;;;4.72;1.40;;;;;;;;;;4929123;28;99122;-75
2023/08/07 12:56:43;;;;;;;2.20;1.10;;;;;;;;;;4930294;28;100120;-75
2023/08/07 12:59:09;;;;;;;2.45;1.15;;;;;;;;;;4930352;28;100265;-73
2023/08/07 13:01:36;;;;;;;3.83;1.42;;;;;;;;;;4929883;28;99539;-73
2023/08/07 13:04:05;;;;;;;3.80;1.80;;;;;;;;;;4930161;28;100142;-73
2023/08/07 13:06:32;;;;;;;1.75;1.08;;;;;;;;;;4930007;28;98890;-73
2023/08/07 13:09:00;;;;;;;2.63;1.63;;;;;;;;;;4928501;28;99207;-74
2023/08/07 13:11:26;;;;;;;1.30;1.20;;;;;;;;;;4932970;28;100194;-73
2023/08/07 13:13:53;;;;;;;5.13;1.83;;;;;;;;;;4925810;28;100272;-73
2023/08/07 13:16:19;;;;;;;2.80;1.52;;;;;;;;;;4917747;28;99648;-73
2023/08/07 13:18:46;;;;;;;6.93;1.40;;;;;;;;;;4910899;28;99892;-74
2023/08/07 13:21:12;;;;;;;3.45;1.38;;;;;;;;;;4910045;28;99923;-73
2023/08/07 13:23:39;;;;;;;4.57;1.20;;;;;;;;;;4909762;28;99721;-74
2023/08/07 13:26:05;;;;;;;3.70;1.20;;;;;;;;;;4911031;28;100132;-74
2023/08/07 13:28:32;;;;;;;3.00;1.20;;;;;;;;;;4912588;28;99851;-74
2023/08/07 13:30:59;;;;;;;4.07;1.90;;;;;;;;;;4918480;28;100353;-72
2023/08/07 13:33:25;;;;;;;2.03;1.52;;;;;;;;;;4927862;28;99992;-74
2023/08/07 13:35:52;;;;;;;5.35;1.50;;;;;;;;;;4920122;28;101693;-73
2023/08/07 13:38:18;;;;;;;6.75;1.70;;;;;;;;;;4920017;28;99069;-73
2023/08/07 13:40:45;;;;;;;5.38;1.25;;;;;;;;;;4923575;28;99912;-73
2023/08/07 13:43:11;;;;;;;3.85;1.65;;;;;;;;;;4923446;28;100233;-73
2023/08/07 13:45:38;;;;;;;2.22;1.00;;;;;;;;;;4918306;28;99969;-72
2023/08/07 13:48:06;;;;;;;2.75;1.30;;;;;;;;;;4922678;28;99159;-73
2023/08/07 13:50:33;;;;;;;3.70;1.10;;;;;;;;;;4917411;28;99851;-73
2023/08/07 13:52:59;;;;;;;2.40;1.25;;;;;;;;;;4926301;28;100332;-71
2023/08/07 13:55:40;;;;;;;7.22;1.38;;;;;;;;;;4922538;28;100466;-73
2023/08/07 13:58:06;;;;;;;2.00;1.02;;;;;;;;;;4916590;28;100345;-73
2023/08/07 14:00:34;;;;;;;2.38;1.60;;;;;;;;;;4921571;28;100581;-73
2023/08/07 14:03:01;;;;;;;7.25;1.17;;;;;;;;;;4918666;28;100177;-73
2023/08/07 14:05:27;;;;;;;1.83;0.95;;;;;;;;;;4927933;28;100121;-72
2023/08/07 14:07:54;;;;;;;1.75;1.00;;;;;;;;;;4928674;28;99809;-73
2023/08/07 14:10:20;;;;;;;2.58;1.50;;;;;;;;;;4927325;28;98900;-74
2023/08/07 14:12:47;;;;;;;3.03;1.52;;;;;;;;;;4923683;28;100230;-73
2023/08/07 14:15:13;;;;;;;3.10;1.13;;;;;;;;;;4923958;28;99308;-72
2023/08/07 14:17:39;;;;;;;1.20;1.10;;;;;;;;;;4924521;28;98985;-72
2023/08/07 14:20:08;;;;;;;5.85;1.23;;;;;;;;;;4913295;28;100106;-72
2023/08/07 14:22:36;;;;;;;2.13;1.08;;;;;;;;;;4919392;28;100974;-73
2023/08/07 14:25:03;;;;;;;2.30;0.90;;;;;;;;;;4922073;28;99516;-73
2023/08/07 14:27:29;;;;;;;2.90;1.25;;;;;;;;;;4918415;28;99671;-73
2023/08/07 14:29:56;;;;;;;6.35;1.08;;;;;;;;;;4915881;28;99490;-73
2023/08/07 14:32:22;;;;;;;4.55;1.58;;;;;;;;;;4917869;28;100077;-73
2023/08/07 14:34:49;;;;;;;4.68;1.23;;;;;;;;;;4920177;28;100582;-72